sensor_id;sensor_type;location;lat;lon;timestamp;pressure;altitude;pressure_sealevel;temperature;humidity
25560;BME280;13450;49.374;8.584;2023-04-25T00:00:45;99906.34;;;8.08;100.00
25560;BME280;13450;49.374;8.584;2023-04-25T00:03:10;99919.00;;;8.06;100.00
25560;BME280;13450;49.374;8.584;2023-04-25T00:05:35;99904.66;;;8.07;100.00
25560;BME280;13450;49.374;8.584;2023-04-25T00:08:03;99904.50;;;8.08;100.00
25560;BME280;13450;49.374;8.584;2023-04-25T00:10:28;99904.31;;;8.10;100.00
25560;BME280;13450;49.374;8.584;2023-04-25T00:12:53;99909.19;;;8.06;100.00
25560;BME280;13450;49.374;8.584;2023-04-25T00:15:19;99908.34;;;8.06;100.00
25560;BME280;13450;49.374;8.584;2023-04-25T00:17:44;99918.56;;;8.02;100.00
25560;BME280;13450;49.374;8.584;2023-04-25T00:20:11;99908.69;;;8.03;100.00
25560;BME280;13450;49.374;8.584;2023-04-25T00:22:36;99917.72;;;8.02;100.00
25560;BME280;13450;49.374;8.584;2023-04-25T00:25:05;99921.38;;;8.01;100.00
25560;BME280;13450;49.374;8.584;2023-04-25T00:27:31;99909.09;;;8.00;100.00
25560;BME280;13450;49.374;8.584;2023-04-25T00:29:56;99914.75;;;7.96;100.00
25560;BME280;13450;49.374;8.584;2023-04-25T00:32:22;99912.44;;;7.93;100.00
25560;BME280;13450;49.374;8.584;2023-04-25T00:34:47;99911.47;;;7.94;100.00
25560;BME280;13450;49.374;8.584;2023-04-25T00:37:12;99900.31;;;7.91;100.00
25560;BME280;13450;49.374;8.584;2023-04-25T00:39:38;99904.84;;;7.90;100.00
25560;BME280;13450;49.374;8.584;2023-04-25T00:42:03;99901.16;;;7.91;100.00
25560;BME280;13450;49.374;8.584;2023-04-25T00:44:30;99897.03;;;7.89;100.00
25560;BME280;13450;49.374;8.584;2023-04-25T00:46:55;99893.69;;;7.87;100.00
25560;BME280;13450;49.374;8.584;2023-04-25T00:49:23;99886.25;;;7.82;100.00
25560;BME280;13450;49.374;8.584;2023-04-25T00:51:51;99895.28;;;7.81;100.00
25560;BME280;13450;49.374;8.584;2023-04-25T00:54:16;99886.16;;;7.75;100.00
25560;BME280;13450;49.374;8.584;2023-04-25T00:56:42;99884.84;;;7.71;100.00
25560;BME280;13450;49.374;8.584;2023-04-25T00:59:09;99889.72;;;7.67;100.00
25560;BME280;13450;49.374;8.584;2023-04-25T01:01:35;99889.91;;;7.66;100.00
25560;BME280;13450;49.374;8.584;2023-04-25T01:04:00;99883.91;;;7.64;100.00
25560;BME280;13450;49.374;8.584;2023-04-25T01:06:26;99886.56;;;7.64;100.00
25560;BME280;13450;49.374;8.584;2023-04-25T01:08:52;99872.06;;;7.66;100.00
25560;BME280;13450;49.374;8.584;2023-04-25T01:11:21;99886.03;;;7.68;100.00
25560;BME280;13450;49.374;8.584;2023-04-25T01:13:46;99876.19;;;7.69;100.00
25560;BME280;13450;49.374;8.584;2023-04-25T01:16:11;99876.69;;;7.72;100.00
25560;BME280;13450;49.374;8.584;2023-04-25T01:18:40;99879.53;;;7.71;100.00
25560;BME280;13450;49.374;8.584;2023-04-25T01:21:10;99873.38;;;7.70;100.00
25560;BME280;13450;49.374;8.584;2023-04-25T01:23:37;99882.38;;;7.69;100.00
25560;BME280;13450;49.374;8.584;2023-04-25T01:26:03;99880.06;;;7.66;100.00
25560;BME280;13450;49.374;8.584;2023-04-25T01:28:31;99872.44;;;7.63;100.00
25560;BME280;13450;49.374;8.584;2023-04-25T01:30:58;99880.25;;;7.65;100.00
25560;BME280;13450;49.374;8.584;2023-04-25T01:33:23;99875.75;;;7.65;100.00
25560;BME280;13450;49.374;8.584;2023-04-25T01:35:49;99876.59;;;7.66;100.00
25560;BME280;13450;49.374;8.584;2023-04-25T01:38:14;99875.75;;;7.65;100.00
25560;BME280;13450;49.374;8.584;2023-04-25T01:40:40;99867.28;;;7.62;100.00
25560;BME280;13450;49.374;8.584;2023-04-25T01:43:06;99866.47;;;7.61;100.00
25560;BME280;13450;49.374;8.584;2023-04-25T01:45:33;99870.41;;;7.65;100.00
25560;BME280;13450;49.374;8.584;2023-04-25T01:47:59;99876.41;;;7.67;100.00
25560;BME280;13450;49.374;8.584;2023-04-25T01:50:24;99873.75;;;7.67;100.00
25560;BME280;13450;49.374;8.584;2023-04-25T01:52:50;99871.25;;;7.66;100.00
25560;BME280;13450;49.374;8.584;2023-04-25T01:55:15;99876.09;;;7.62;100.00
25560;BME280;13450;49.374;8.584;2023-04-25T01:57:41;99875.47;;;7.60;100.00
25560;BME280;13450;49.374;8.584;2023-04-25T02:00:07;99877.66;;;7.56;100.00
25560;BME280;13450;49.374;8.584;2023-04-25T02:02:34;99875.81;;;7.57;100.00
25560;BME280;13450;49.374;8.584;2023-04-25T02:04:59;99873.53;;;7.54;100.00
25560;BME280;13450;49.374;8.584;2023-04-25T02:07:26;99879.19;;;7.51;100.00
25560;BME280;13450;49.374;8.584;2023-04-25T02:09:51;99875.41;;;7.45;100.00
25560;BME280;13450;49.374;8.584;2023-04-25T02:12:16;99883.41;;;7.45;100.00
25560;BME280;13450;49.374;8.584;2023-04-25T02:14:42;99882.25;;;7.39;100.00
25560;BME280;13450;49.374;8.584;2023-04-25T02:17:07;99881.47;;;7.39;100.00
25560;BME280;13450;49.374;8.584;2023-04-25T02:19:35;99884.28;;;7.37;100.00
25560;BME280;13450;49.374;8.584;2023-04-25T02:22:00;99879.97;;;7.36;100.00
25560;BME280;13450;49.374;8.584;2023-04-25T02:24:26;99880.31;;;7.33;100.00
25560;BME280;13450;49.374;8.584;2023-04-25T02:26:54;99880.03;;;7.28;100.00
25560;BME280;13450;49.374;8.584;2023-04-25T02:29:21;99885.53;;;7.26;100.00
25560;BME280;13450;49.374;8.584;2023-04-25T02:31:48;99882.03;;;7.26;100.00
25560;BME280;13450;49.374;8.584;2023-04-25T02:34:15;99891.03;;;7.25;100.00
25560;BME280;13450;49.374;8.584;2023-04-25T02:36:40;99893.38;;;7.19;100.00
25560;BME280;13450;49.374;8.584;2023-04-25T02:39:06;99889.06;;;7.18;100.00
25560;BME280;13450;49.374;8.584;2023-04-25T02:41:33;99881.78;;;7.12;100.00
25560;BME280;13450;49.374;8.584;2023-04-25T02:43:59;99887.47;;;7.09;100.00
25560;BME280;13450;49.374;8.584;2023-04-25T02:46:24;99880.00;;;7.04;100.00
25560;BME280;13450;49.374;8.584;2023-04-25T02:48:49;99884.84;;;7.01;100.00
25560;BME280;13450;49.374;8.584;2023-04-25T02:51:15;99885.38;;;6.96;100.00
25560;BME280;13450;49.374;8.584;2023-04-25T02:53:42;99887.56;;;6.92;100.00
25560;BME280;13450;49.374;8.584;2023-04-25T02:56:07;99883.75;;;6.87;100.00
25560;BME280;13450;49.374;8.584;2023-04-25T02:58:33;99874.28;;;6.84;100.00
25560;BME280;13450;49.374;8.584;2023-04-25T03:00:58;99883.94;;;6.85;100.00
25560;BME280;13450;49.374;8.584;2023-04-25T03:03:23;99872.31;;;6.86;100.00
25560;BME280;13450;49.374;8.584;2023-04-25T03:05:50;99884.59;;;6.87;100.00
25560;BME280;13450;49.374;8.584;2023-04-25T03:08:16;99886.91;;;6.90;100.00
25560;BME280;13450;49.374;8.584;2023-04-25T03:10:42;99877.44;;;6.88;100.00
25560;BME280;13450;49.374;8.584;2023-04-25T03:13:07;99879.91;;;6.89;100.00
25560;BME280;13450;49.374;8.584;2023-04-25T03:15:33;99881.59;;;6.90;100.00
25560;BME280;13450;49.374;8.584;2023-04-25T03:17:58;99879.56;;;6.92;100.00
25560;BME280;13450;49.374;8.584;2023-04-25T03:20:23;99867.59;;;6.97;100.00
25560;BME280;13450;49.374;8.584;2023-04-25T03:22:49;99872.91;;;6.97;100.00
25560;BME280;13450;49.374;8.584;2023-04-25T03:25:15;99862.25;;;6.97;100.00
25560;BME280;13450;49.374;8.584;2023-04-25T03:27:41;99874.91;;;6.94;100.00
25560;BME280;13450;49.374;8.584;2023-04-25T03:30:06;99873.25;;;6.93;100.00
25560;BME280;13450;49.374;8.584;2023-04-25T03:32:33;99869.94;;;6.91;100.00
25560;BME280;13450;49.374;8.584;2023-04-25T03:34:58;99874.25;;;6.92;100.00
25560;BME280;13450;49.374;8.584;2023-04-25T03:37:23;99870.75;;;6.92;100.00
25560;BME280;13450;49.374;8.584;2023-04-25T03:39:49;99864.63;;;6.91;100.00
25560;BME280;13450;49.374;8.584;2023-04-25T03:42:14;99869.09;;;6.91;100.00
25560;BME280;13450;49.374;8.584;2023-04-25T03:44:39;99868.75;;;6.94;100.00
25560;BME280;13450;49.374;8.584;2023-04-25T03:47:05;99867.28;;;6.91;100.00
25560;BME280;13450;49.374;8.584;2023-04-25T03:49:31;99871.59;;;6.92;100.00
25560;BME280;13450;49.374;8.584;2023-04-25T03:51:56;99878.56;;;6.93;100.00
25560;BME280;13450;49.374;8.584;2023-04-25T03:54:21;99877.09;;;6.91;100.00
25560;BME280;13450;49.374;8.584;2023-04-25T03:56:47;99877.63;;;6.86;100.00
25560;BME280;13450;49.374;8.584;2023-04-25T03:59:13;99876.78;;;6.86;100.00
25560;BME280;13450;49.374;8.584;2023-04-25T04:01:41;99877.97;;;6.83;100.00
25560;BME280;13450;49.374;8.584;2023-04-25T04:04:06;99878.81;;;6.84;100.00
25560;BME280;13450;49.374;8.584;2023-04-25T04:06:35;99883.63;;;6.80;100.00
25560;BME280;13450;49.374;8.584;2023-04-25T04:09:01;99884.47;;;6.80;100.00
25560;BME280;13450;49.374;8.584;2023-04-25T04:11:27;99886.78;;;6.84;100.00
25560;BME280;13450;49.374;8.584;2023-04-25T04:13:52;99880.47;;;6.85;100.00
25560;BME280;13450;49.374;8.584;2023-04-25T04:16:17;99890.38;;;6.91;100.00
25560;BME280;13450;49.374;8.584;2023-04-25T04:18:45;99880.22;;;6.94;100.00
25560;BME280;13450;49.374;8.584;2023-04-25T04:21:10;99891.56;;;6.88;100.00
25560;BME280;13450;49.374;8.584;2023-04-25T04:23:35;99879.63;;;6.84;100.00
25560;BME280;13450;49.374;8.584;2023-04-25T04:26:01;99888.59;;;6.83;100.00
25560;BME280;13450;49.374;8.584;2023-04-25T04:28:26;99889.06;;;6.87;100.00
25560;BME280;13450;49.374;8.584;2023-04-25T04:30:52;99879.63;;;6.84;100.00
25560;BME280;13450;49.374;8.584;2023-04-25T04:33:17;99884.59;;;6.87;100.00
25560;BME280;13450;49.374;8.584;2023-04-25T04:35:45;99887.59;;;6.84;100.00
25560;BME280;13450;49.374;8.584;2023-04-25T04:38:12;99896.75;;;6.82;100.00
25560;BME280;13450;49.374;8.584;2023-04-25T04:40:40;99899.88;;;6.85;100.00
25560;BME280;13450;49.374;8.584;2023-04-25T04:43:06;99905.03;;;6.87;100.00
25560;BME280;13450;49.374;8.584;2023-04-25T04:45:35;99897.56;;;6.90;100.00
25560;BME280;13450;49.374;8.584;2023-04-25T04:48:01;99894.91;;;6.90;100.00
25560;BME280;13450;49.374;8.584;2023-04-25T04:50:27;99898.19;;;6.92;100.00
25560;BME280;13450;49.374;8.584;2023-04-25T04:52:52;99910.78;;;6.99;100.00
25560;BME280;13450;49.374;8.584;2023-04-25T04:55:17;99911.47;;;7.01;100.00
25560;BME280;13450;49.374;8.584;2023-04-25T04:57:43;99915.78;;;7.02;100.00
25560;BME280;13450;49.374;8.584;2023-04-25T05:00:08;99922.22;;;7.07;100.00
25560;BME280;13450;49.374;8.584;2023-04-25T05:02:37;99916.75;;;7.09;100.00
25560;BME280;13450;49.374;8.584;2023-04-25T05:05:02;99917.38;;;7.11;100.00
25560;BME280;13450;49.374;8.584;2023-04-25T05:07:28;99922.38;;;7.14;100.00
25560;BME280;13450;49.374;8.584;2023-04-25T05:09:53;99916.31;;;7.20;100.00
25560;BME280;13450;49.374;8.584;2023-04-25T05:12:18;99922.97;;;7.25;100.00
25560;BME280;13450;49.374;8.584;2023-04-25T05:14:44;99928.94;;;7.27;100.00
25560;BME280;13450;49.374;8.584;2023-04-25T05:17:11;99919.63;;;7.31;100.00
25560;BME280;13450;49.374;8.584;2023-04-25T05:19:36;99913.56;;;7.37;100.00
25560;BME280;13450;49.374;8.584;2023-04-25T05:22:02;99920.03;;;7.43;100.00
25560;BME280;13450;49.374;8.584;2023-04-25T05:24:27;99920.16;;;7.50;100.00
25560;BME280;13450;49.374;8.584;2023-04-25T05:26:53;99918.97;;;7.52;100.00
25560;BME280;13450;49.374;8.584;2023-04-25T05:29:18;99919.25;;;7.57;100.00
25560;BME280;13450;49.374;8.584;2023-04-25T05:31:44;99909.34;;;7.66;100.00
25560;BME280;13450;49.374;8.584;2023-04-25T05:34:09;99916.47;;;7.74;100.00
25560;BME280;13450;49.374;8.584;2023-04-25T05:36:37;99915.75;;;7.80;100.00
25560;BME280;13450;49.374;8.584;2023-04-25T05:39:02;99911.38;;;7.88;100.00
25560;BME280;13450;49.374;8.584;2023-04-25T05:41:29;99912.66;;;7.92;100.00
25560;BME280;13450;49.374;8.584;2023-04-25T05:43:54;99918.09;;;7.98;100.00
25560;BME280;13450;49.374;8.584;2023-04-25T05:46:20;99923.72;;;8.04;100.00
25560;BME280;13450;49.374;8.584;2023-04-25T05:48:45;99926.66;;;8.09;100.00
25560;BME280;13450;49.374;8.584;2023-04-25T05:51:10;99922.69;;;8.05;100.00
25560;BME280;13450;49.374;8.584;2023-04-25T05:53:36;99923.22;;;8.00;100.00
25560;BME280;13450;49.374;8.584;2023-04-25T05:56:01;99931.88;;;8.02;100.00
25560;BME280;13450;49.374;8.584;2023-04-25T05:58:27;99934.09;;;7.98;100.00
25560;BME280;13450;49.374;8.584;2023-04-25T06:00:52;99926.25;;;7.97;100.00
25560;BME280;13450;49.374;8.584;2023-04-25T06:03:17;99936.09;;;7.96;100.00
25560;BME280;13450;49.374;8.584;2023-04-25T06:05:43;99937.09;;;7.95;100.00
25560;BME280;13450;49.374;8.584;2023-04-25T06:08:09;99931.09;;;7.93;100.00
25560;BME280;13450;49.374;8.584;2023-04-25T06:10:35;99949.13;;;7.91;100.00
25560;BME280;13450;49.374;8.584;2023-04-25T06:13:00;99946.69;;;7.81;100.00
25560;BME280;13450;49.374;8.584;2023-04-25T06:15:26;99957.91;;;7.77;100.00
25560;BME280;13450;49.374;8.584;2023-04-25T06:17:51;99956.78;;;7.71;100.00
25560;BME280;13450;49.374;8.584;2023-04-25T06:20:17;99949.97;;;7.68;100.00
25560;BME280;13450;49.374;8.584;2023-04-25T06:22:42;99949.13;;;7.68;100.00
25560;BME280;13450;49.374;8.584;2023-04-25T06:25:07;99945.94;;;7.72;100.00
25560;BME280;13450;49.374;8.584;2023-04-25T06:27:33;99960.56;;;7.77;100.00
25560;BME280;13450;49.374;8.584;2023-04-25T06:29:59;99952.03;;;7.81;100.00
25560;BME280;13450;49.374;8.584;2023-04-25T06:32:24;99949.66;;;7.87;100.00
25560;BME280;13450;49.374;8.584;2023-04-25T06:34:50;99948.28;;;7.91;100.00
25560;BME280;13450;49.374;8.584;2023-04-25T06:37:15;99946.00;;;8.03;100.00
25560;BME280;13450;49.374;8.584;2023-04-25T06:39:41;99947.31;;;8.07;100.00
25560;BME280;13450;49.374;8.584;2023-04-25T06:42:08;99952.66;;;8.22;100.00
25560;BME280;13450;49.374;8.584;2023-04-25T06:44:34;99948.38;;;8.36;100.00
25560;BME280;13450;49.374;8.584;2023-04-25T06:46:59;99955.84;;;8.56;100.00
25560;BME280;13450;49.374;8.584;2023-04-25T06:49:24;99950.34;;;8.72;100.00
25560;BME280;13450;49.374;8.584;2023-04-25T06:51:50;99944.59;;;8.90;100.00
25560;BME280;13450;49.374;8.584;2023-04-25T06:54:16;99958.41;;;9.09;100.00
25560;BME280;13450;49.374;8.584;2023-04-25T06:56:44;99953.16;;;9.16;100.00
25560;BME280;13450;49.374;8.584;2023-04-25T06:59:10;99957.72;;;9.22;100.00
25560;BME280;13450;49.374;8.584;2023-04-25T07:01:35;99956.69;;;9.23;100.00
25560;BME280;13450;49.374;8.584;2023-04-25T07:04:00;99958.28;;;9.18;100.00
25560;BME280;13450;49.374;8.584;2023-04-25T07:06:26;99957.75;;;9.07;100.00
25560;BME280;13450;49.374;8.584;2023-04-25T07:08:53;99963.66;;;9.02;100.00
25560;BME280;13450;49.374;8.584;2023-04-25T07:11:18;99956.38;;;8.96;100.00
25560;BME280;13450;49.374;8.584;2023-04-25T07:13:43;99961.72;;;8.96;100.00
25560;BME280;13450;49.374;8.584;2023-04-25T07:16:09;99957.31;;;8.88;100.00
25560;BME280;13450;49.374;8.584;2023-04-25T07:18:34;99961.28;;;8.77;100.00
25560;BME280;13450;49.374;8.584;2023-04-25T07:20:59;99973.25;;;8.67;100.00
25560;BME280;13450;49.374;8.584;2023-04-25T07:23:24;99973.81;;;8.62;100.00
25560;BME280;13450;49.374;8.584;2023-04-25T07:25:50;99975.53;;;8.55;100.00
25560;BME280;13450;49.374;8.584;2023-04-25T07:28:15;99976.06;;;8.35;100.00
25560;BME280;13450;49.374;8.584;2023-04-25T07:30:40;99979.50;;;8.20;100.00
25560;BME280;13450;49.374;8.584;2023-04-25T07:33:08;99986.75;;;8.11;100.00
25560;BME280;13450;49.374;8.584;2023-04-25T07:35:33;99993.63;;;8.06;100.00
25560;BME280;13450;49.374;8.584;2023-04-25T07:38:01;99986.66;;;8.05;100.00
25560;BME280;13450;49.374;8.584;2023-04-25T07:40:26;99989.59;;;8.10;100.00
25560;BME280;13450;49.374;8.584;2023-04-25T07:42:52;99983.19;;;8.19;100.00
25560;BME280;13450;49.374;8.584;2023-04-25T07:45:17;99976.88;;;8.35;100.00
25560;BME280;13450;49.374;8.584;2023-04-25T07:47:42;99983.13;;;8.43;100.00
25560;BME280;13450;49.374;8.584;2023-04-25T07:50:08;99983.25;;;8.49;100.00
25560;BME280;13450;49.374;8.584;2023-04-25T07:52:34;99986.22;;;8.55;100.00
25560;BME280;13450;49.374;8.584;2023-04-25T07:54:59;99983.47;;;8.63;100.00
25560;BME280;13450;49.374;8.584;2023-04-25T07:57:25;99994.59;;;8.67;100.00
25560;BME280;13450;49.374;8.584;2023-04-25T07:59:50;99993.38;;;8.69;100.00
25560;BME280;13450;49.374;8.584;2023-04-25T08:02:16;100002.94;;;8.79;100.00
25560;BME280;13450;49.374;8.584;2023-04-25T08:04:41;100003.69;;;8.72;100.00
25560;BME280;13450;49.374;8.584;2023-04-25T08:07:06;100010.69;;;8.73;100.00
25560;BME280;13450;49.374;8.584;2023-04-25T08:09:32;100010.78;;;8.80;100.00
25560;BME280;13450;49.374;8.584;2023-04-25T08:12:00;100022.84;;;8.91;100.00
25560;BME280;13450;49.374;8.584;2023-04-25T08:14:27;100036.97;;;9.07;100.00
25560;BME280;13450;49.374;8.584;2023-04-25T08:16:53;100029.53;;;9.17;100.00
25560;BME280;13450;49.374;8.584;2023-04-25T08:19:19;100029.53;;;9.32;100.00
25560;BME280;13450;49.374;8.584;2023-04-25T08:21:44;100032.97;;;9.48;100.00
25560;BME280;13450;49.374;8.584;2023-04-25T08:24:09;100042.13;;;9.75;100.00
25560;BME280;13450;49.374;8.584;2023-04-25T08:26:35;100046.72;;;10.03;100.00
25560;BME280;13450;49.374;8.584;2023-04-25T08:29:08;100048.59;;;10.31;100.00
25560;BME280;13450;49.374;8.584;2023-04-25T08:31:33;100054.53;;;10.49;100.00
25560;BME280;13450;49.374;8.584;2023-04-25T08:34:01;100060.44;;;10.66;100.00
25560;BME280;13450;49.374;8.584;2023-04-25T08:36:26;100062.47;;;10.64;100.00
25560;BME280;13450;49.374;8.584;2023-04-25T08:38:53;100069.31;;;10.73;100.00
25560;BME280;13450;49.374;8.584;2023-04-25T08:41:19;100071.72;;;10.90;100.00
25560;BME280;13450;49.374;8.584;2023-04-25T08:43:48;100070.06;;;10.89;100.00
25560;BME280;13450;49.374;8.584;2023-04-25T08:46:18;100075.88;;;10.99;100.00
25560;BME280;13450;49.374;8.584;2023-04-25T08:48:44;100070.28;;;10.94;100.00
25560;BME280;13450;49.374;8.584;2023-04-25T08:51:15;100077.34;;;11.02;100.00
25560;BME280;13450;49.374;8.584;2023-04-25T08:53:41;100073.13;;;11.21;100.00
25560;BME280;13450;49.374;8.584;2023-04-25T08:56:08;100078.47;;;11.21;100.00
25560;BME280;13450;49.374;8.584;2023-04-25T08:58:35;100075.44;;;11.31;100.00
25560;BME280;13450;49.374;8.584;2023-04-25T09:01:01;100086.22;;;11.44;100.00
25560;BME280;13450;49.374;8.584;2023-04-25T09:03:27;100090.91;;;11.35;100.00
25560;BME280;13450;49.374;8.584;2023-04-25T09:05:53;100089.16;;;11.56;100.00
25560;BME280;13450;49.374;8.584;2023-04-25T09:08:22;100088.59;;;11.81;100.00
25560;BME280;13450;49.374;8.584;2023-04-25T09:10:48;100092.34;;;11.94;100.00
25560;BME280;13450;49.374;8.584;2023-04-25T09:13:17;100098.19;;;12.18;100.00
25560;BME280;13450;49.374;8.584;2023-04-25T09:15:53;100098.13;;;12.04;100.00
25560;BME280;13450;49.374;8.584;2023-04-25T09:20:51;100095.50;;;12.92;100.00
25560;BME280;13450;49.374;8.584;2023-04-25T09:23:18;100111.19;;;13.08;100.00
25560;BME280;13450;49.374;8.584;2023-04-25T09:25:49;100104.28;;;13.40;100.00
25560;BME280;13450;49.374;8.584;2023-04-25T09:28:26;100110.97;;;13.24;100.00
25560;BME280;13450;49.374;8.584;2023-04-25T09:30:56;100111.38;;;13.20;100.00
25560;BME280;13450;49.374;8.584;2023-04-25T09:33:31;100116.78;;;13.07;100.00
25560;BME280;13450;49.374;8.584;2023-04-25T09:36:07;100123.56;;;13.23;100.00
25560;BME280;13450;49.374;8.584;2023-04-25T09:38:43;100117.56;;;13.28;100.00
25560;BME280;13450;49.374;8.584;2023-04-25T09:41:09;100124.25;;;12.91;100.00
25560;BME280;13450;49.374;8.584;2023-04-25T09:43:35;100131.66;;;12.89;100.00
25560;BME280;13450;49.374;8.584;2023-04-25T09:46:09;100130.81;;;13.16;100.00
25560;BME280;13450;49.374;8.584;2023-04-25T09:48:34;100134.41;;;13.62;100.00
25560;BME280;13450;49.374;8.584;2023-04-25T09:51:07;100144.97;;;14.03;94.39
25560;BME280;13450;49.374;8.584;2023-04-25T09:53:34;100135.31;;;14.27;91.98
25560;BME280;13450;49.374;8.584;2023-04-25T09:56:03;100139.78;;;14.72;87.48
25560;BME280;13450;49.374;8.584;2023-04-25T09:58:30;100136.59;;;15.08;88.53
25560;BME280;13450;49.374;8.584;2023-04-25T10:01:00;100141.06;;;14.95;85.58
25560;BME280;13450;49.374;8.584;2023-04-25T10:03:26;100143.88;;;14.49;85.44
25560;BME280;13450;49.374;8.584;2023-04-25T10:05:57;100149.91;;;13.73;89.67
25560;BME280;13450;49.374;8.584;2023-04-25T10:08:25;100157.22;;;13.32;97.57
25560;BME280;13450;49.374;8.584;2023-04-25T10:10:53;100153.13;;;13.03;97.73
25560;BME280;13450;49.374;8.584;2023-04-25T10:13:20;100156.47;;;12.71;98.36
25560;BME280;13450;49.374;8.584;2023-04-25T10:15:46;100156.47;;;12.98;98.65
25560;BME280;13450;49.374;8.584;2023-04-25T10:18:12;100167.19;;;12.98;95.17
25560;BME280;13450;49.374;8.584;2023-04-25T10:20:38;100160.56;;;13.14;94.93
25560;BME280;13450;49.374;8.584;2023-04-25T10:23:13;100173.38;;;13.12;95.41
25560;BME280;13450;49.374;8.584;2023-04-25T10:25:40;100163.81;;;13.37;91.98
25560;BME280;13450;49.374;8.584;2023-04-25T10:28:06;100159.38;;;14.22;90.80
25560;BME280;13450;49.374;8.584;2023-04-25T10:30:31;100177.81;;;13.72;83.78
25560;BME280;13450;49.374;8.584;2023-04-25T10:32:59;100170.72;;;13.85;88.27
25560;BME280;13450;49.374;8.584;2023-04-25T10:38:04;100175.84;;;13.20;84.72
25560;BME280;13450;49.374;8.584;2023-04-25T10:40:33;100174.56;;;13.43;90.58
25560;BME280;13450;49.374;8.584;2023-04-25T10:43:36;100176.66;;;13.34;85.05
25560;BME280;13450;49.374;8.584;2023-04-25T10:46:19;100173.97;;;14.01;79.70
25560;BME280;13450;49.374;8.584;2023-04-25T10:48:54;100168.53;;;14.78;71.29
25560;BME280;13450;49.374;8.584;2023-04-25T10:56:36;100179.44;;;15.35;70.98
25560;BME280;13450;49.374;8.584;2023-04-25T10:59:14;100181.91;;;14.60;72.24
25560;BME280;13450;49.374;8.584;2023-04-25T11:01:40;100183.66;;;14.08;78.15
25560;BME280;13450;49.374;8.584;2023-04-25T11:04:29;100190.69;;;13.43;86.12
25560;BME280;13450;49.374;8.584;2023-04-25T11:09:56;100197.75;;;12.50;95.07
25560;BME280;13450;49.374;8.584;2023-04-25T11:12:24;100199.72;;;12.21;100.00
25560;BME280;13450;49.374;8.584;2023-04-25T11:14:50;100199.69;;;12.07;100.00
25560;BME280;13450;49.374;8.584;2023-04-25T11:17:15;100186.84;;;11.96;100.00
25560;BME280;13450;49.374;8.584;2023-04-25T11:19:40;100189.22;;;12.33;100.00
25560;BME280;13450;49.374;8.584;2023-04-25T11:22:08;100192.41;;;12.63;100.00
25560;BME280;13450;49.374;8.584;2023-04-25T11:24:35;100187.84;;;12.71;100.00
25560;BME280;13450;49.374;8.584;2023-04-25T11:27:02;100190.25;;;12.25;100.00
25560;BME280;13450;49.374;8.584;2023-04-25T11:29:30;100196.75;;;12.02;100.00
25560;BME280;13450;49.374;8.584;2023-04-25T11:31:59;100199.69;;;12.07;100.00
25560;BME280;13450;49.374;8.584;2023-04-25T11:34:26;100195.97;;;12.08;100.00
25560;BME280;13450;49.374;8.584;2023-04-25T11:36:54;100206.09;;;12.13;99.88
25560;BME280;13450;49.374;8.584;2023-04-25T11:39:20;100200.34;;;12.16;96.89
25560;BME280;13450;49.374;8.584;2023-04-25T11:41:46;100204.31;;;12.40;100.00
25560;BME280;13450;49.374;8.584;2023-04-25T11:44:15;100211.81;;;12.92;96.29
25560;BME280;13450;49.374;8.584;2023-04-25T11:46:44;100208.56;;;15.00;75.43
25560;BME280;13450;49.374;8.584;2023-04-25T11:49:11;100199.91;;;18.84;57.35
25560;BME280;13450;49.374;8.584;2023-04-25T11:51:44;100204.59;;;20.62;51.98
25560;BME280;13450;49.374;8.584;2023-04-25T11:54:10;100223.56;;;18.72;49.37
25560;BME280;13450;49.374;8.584;2023-04-25T11:56:40;100212.78;;;18.13;51.94
25560;BME280;13450;49.374;8.584;2023-04-25T11:59:08;100225.19;;;16.78;54.56
25560;BME280;13450;49.374;8.584;2023-04-25T12:01:35;100225.59;;;16.20;62.88
25560;BME280;13450;49.374;8.584;2023-04-25T12:04:16;100219.03;;;15.34;62.69
25560;BME280;13450;49.374;8.584;2023-04-25T12:06:44;100223.69;;;14.69;68.50
25560;BME280;13450;49.374;8.584;2023-04-25T12:09:12;100234.50;;;14.23;71.57
25560;BME280;13450;49.374;8.584;2023-04-25T12:11:43;100231.50;;;13.99;72.48
25560;BME280;13450;49.374;8.584;2023-04-25T12:14:10;100237.31;;;13.96;77.34
25560;BME280;13450;49.374;8.584;2023-04-25T12:16:46;100239.25;;;13.69;75.81
25560;BME280;13450;49.374;8.584;2023-04-25T12:19:19;100237.00;;;13.45;81.24
25560;BME280;13450;49.374;8.584;2023-04-25T12:21:45;100244.88;;;13.33;83.12
25560;BME280;13450;49.374;8.584;2023-04-25T12:24:22;100244.06;;;13.19;85.42
25560;BME280;13450;49.374;8.584;2023-04-25T12:26:53;100248.59;;;13.19;86.47
25560;BME280;13450;49.374;8.584;2023-04-25T12:29:23;100245.28;;;12.83;91.58
25560;BME280;13450;49.374;8.584;2023-04-25T12:31:51;100241.94;;;12.74;88.46
25560;BME280;13450;49.374;8.584;2023-04-25T12:34:20;100244.88;;;12.79;89.70
25560;BME280;13450;49.374;8.584;2023-04-25T12:36:46;100239.91;;;13.24;87.64
25560;BME280;13450;49.374;8.584;2023-04-25T12:39:18;100237.00;;;13.66;82.06
25560;BME280;13450;49.374;8.584;2023-04-25T12:41:44;100243.34;;;14.37;79.70
25560;BME280;13450;49.374;8.584;2023-04-25T12:44:13;100227.94;;;14.84;71.60
25560;BME280;13450;49.374;8.584;2023-04-25T12:46:39;100231.25;;;15.55;69.78
25560;BME280;13450;49.374;8.584;2023-04-25T12:49:04;100246.63;;;15.92;61.43
25560;BME280;13450;49.374;8.584;2023-04-25T12:51:32;100236.56;;;16.06;59.41
25560;BME280;13450;49.374;8.584;2023-04-25T12:53:58;100241.44;;;16.47;61.49
25560;BME280;13450;49.374;8.584;2023-04-25T12:56:24;100237.78;;;17.91;52.98
25560;BME280;13450;49.374;8.584;2023-04-25T12:58:50;100241.38;;;18.67;55.11
25560;BME280;13450;49.374;8.584;2023-04-25T13:01:15;100246.59;;;18.86;51.51
25560;BME280;13450;49.374;8.584;2023-04-25T13:03:43;100243.81;;;18.52;47.19
25560;BME280;13450;49.374;8.584;2023-04-25T13:06:11;100251.41;;;17.97;49.52